Nearby METAR Reports


RPLC - Angeles/Pampanga, Philippines
Distance from station: S 166km
Updated: Sat, 11-Jul-2020 10:00pm PST
NOT Current
Mostly cloudy
Mostly cloudy
 Wind from S
Wind: S 6 km/h
Temperature: 27°C
Heat Index: 31°C
Dew Point: 24°C
Humidity: 84%
Barometer: 1011 hPa
Clouds: Mostly cloudy
Visibility: 8 km
Cloud details: Partly cloudy 610 m
Mostly cloudy 3048 m
2020/07/11 14:00 RPLC 111400Z 19003KT 8000 SCT020 BKN100 27/24 Q1011 NOSIG RMK A2985
RPLI - Laoag Intl Airport, Philippines
Distance from station: N 171km
Updated: Sat, 11-Jul-2020 8:00pm PST
NOT Current
Thunderstorm, Nearby showers, Mostly cloudy
Thunderstorm, Nearby showers, Mostly cloudy
 Wind from SSW
Wind: SSW 6 km/h
Temperature: 27°C
Heat Index: 31°C
Dew Point: 25°C
Humidity: 89%
Barometer: 1011 hPa
Summary: Thunderstorm, Nearby showers
Clouds: Mostly cloudy
Cloud details: Partly cloudy 518 m
Partly cloudy 549 m
Mostly cloudy 3048 m
2020/07/11 12:00 RPLI 111200Z 21003KT 180V240 TS VCSH SCT017CB SCT018 BKN100 27/25 Q1011 NOSIG RMK A2986
 
RPLB - Olongapo/Subic, Philippines
Distance from station: S 205km
Updated: Sat, 11-Jul-2020 10:00pm PST
NOT Current
Mostly cloudy
Mostly cloudy
 Wind from ENE
Wind: ENE 9 km/h
Temperature: 27°C
Heat Index: 31°C
Dew Point: 24°C
Humidity: 84%
Barometer: 1012 hPa
Clouds: Mostly cloudy
Visibility: 10 km
Cloud details: Few Clouds 549 m
Few Clouds 610 m
Mostly cloudy 9144 m
2020/07/11 14:00 RPLB 111400Z 07005KT 9999 FEW018CB FEW020 BKN300 27/24 Q1012 RETS RMK A2988
RPLL - Ninoy Aquino Intl Airport, Philippines
Distance from station: SSE 247km
Updated: Sat, 11-Jul-2020 10:00pm PST
NOT Current
Partly cloudy
Partly cloudy
 Wind from varies
Wind: varies 2 km/h
Temperature: 28°C
Heat Index: 31°C
Dew Point: 23°C
Humidity: 74%
Barometer: 1011 hPa
Clouds: Partly cloudy
Visibility: 10 km
Cloud details: Few Clouds 1158 m
Partly cloudy 6706 m
2020/07/11 14:00 RPLL 111400Z AUTO VRB01KT 9999 FEW038 SCT220 28/23 Q1011